Adamant, Vermont
Current Conditions -  °F | °C
As of 1:51 AM on Sunday 23 Nov 2014 (Local Time) from KMPV Reporting Station
Overcast Overcast  
Wind Chill:   Ceiling: 2000
Heat Index:   Visibility: 10mi
Dew Point:   Wind: 12mph
Humidity: 74%   Direction: 210°SSW
Pressure: 29.97"   Gusts: 16mph
Location:  44.33°N, 72.5°W
Report Text: KMPV 230651Z AUTO 21010G14KT 10SM OVC020 06/02 A2997 RMK AO2 SLP161 T00610017
Loading
Personal Weather Stations






























Interactive Weather Map New forecast layout! Learn more

10-Day Weather Forecast

Advertisements
Track Severe Weather on mobile